createdAt,value
2022-11-24T00:00:40.748Z,73.7143
2022-11-24T00:01:40.771Z,73.7143
2022-11-24T00:02:40.938Z,73.7143
2022-11-24T00:03:40.899Z,73.7143
2022-11-24T00:04:40.869Z,73.7857
2022-11-24T00:05:40.888Z,73.7857
2022-11-24T00:06:40.929Z,73.7857
2022-11-24T00:07:41.043Z,73.7143
2022-11-24T00:08:41.001Z,73.7857
2022-11-24T00:09:41.024Z,73.7857
2022-11-24T00:10:41.065Z,73.7857
2022-11-24T00:11:41.089Z,73.7143
2022-11-24T00:12:41.114Z,73.7143
2022-11-24T00:13:41.144Z,73.7143
2022-11-24T00:14:41.179Z,73.7143
2022-11-24T00:15:41.213Z,73.6429
2022-11-24T00:16:41.299Z,73.6429
2022-11-24T00:17:41.278Z,73.6429
2022-11-24T00:18:41.310Z,73.6429
2022-11-24T00:19:41.328Z,73.6429
2022-11-24T00:20:41.360Z,73.6429
2022-11-24T00:21:41.392Z,73.6429
2022-11-24T00:22:41.423Z,73.6429
2022-11-24T00:23:41.461Z,73.7143
2022-11-24T00:24:41.493Z,73.7143
2022-11-24T00:25:41.516Z,73.7143
2022-11-24T00:26:41.543Z,73.7143
2022-11-24T00:27:41.570Z,73.6429
2022-11-24T00:28:41.600Z,73.6429
2022-11-24T00:29:41.637Z,73.5714
2022-11-24T00:30:41.720Z,73.5714
2022-11-24T00:31:41.709Z,73.5
2022-11-24T00:32:41.726Z,73.5714
2022-11-24T00:33:41.763Z,73.5714
2022-11-24T00:34:41.800Z,73.5714
2022-11-24T00:35:41.825Z,73.5
2022-11-24T00:36:41.866Z,73.5
2022-11-24T00:37:41.897Z,73.4286
2022-11-24T00:38:41.926Z,73.3571
2022-11-24T00:39:41.952Z,73.3571
2022-11-24T00:40:41.985Z,73.3571
2022-11-24T00:41:42.034Z,73.3571
2022-11-24T00:42:42.053Z,73.3571
2022-11-24T00:43:42.085Z,73.2857
2022-11-24T00:44:42.124Z,73.2857
2022-11-24T00:45:42.267Z,73.2143
2022-11-24T00:46:42.329Z,73.2143
2022-11-24T00:47:42.220Z,73.2143
2022-11-24T00:48:42.281Z,73.2143
2022-11-24T00:49:42.284Z,73.1429
2022-11-24T00:50:42.314Z,73.1429
2022-11-24T00:51:42.343Z,73.1429
2022-11-24T00:52:42.377Z,73.0714
2022-11-24T00:53:42.404Z,73.0714
2022-11-24T00:54:42.437Z,73.0714
2022-11-24T00:55:42.474Z,73
2022-11-24T00:56:42.511Z,72.9286
2022-11-24T00:57:42.543Z,72.9286
2022-11-24T00:58:42.589Z,72.9286
2022-11-24T00:59:42.613Z,72.9286
2022-11-24T01:00:42.643Z,72.9286
2022-11-24T01:01:42.795Z,72.7857
2022-11-24T01:02:42.756Z,72.7143
2022-11-24T01:03:42.747Z,72.7143
2022-11-24T01:04:42.771Z,72.7143
2022-11-24T01:05:42.801Z,72.7857
2022-11-24T01:06:42.833Z,72.7857
2022-11-24T01:07:42.892Z,72.7857
2022-11-24T01:08:42.902Z,72.9286
2022-11-24T01:09:42.944Z,72.9286
2022-11-24T01:10:43.015Z,73
2022-11-24T01:11:43.001Z,73.0714
2022-11-24T01:12:43.031Z,73.1429
2022-11-24T01:13:43.069Z,73.2143
2022-11-24T01:14:43.095Z,73.2143
2022-11-24T01:15:43.170Z,73.2857
2022-11-24T01:16:43.158Z,73.2857
2022-11-24T01:17:43.190Z,73.2143
2022-11-24T01:18:43.214Z,73.2143
2022-11-24T01:19:43.247Z,73.2143
2022-11-24T01:20:43.285Z,73.2143
2022-11-24T01:21:43.319Z,73.2857
2022-11-24T01:22:43.348Z,73.2857
2022-11-24T01:23:43.380Z,73.2857
2022-11-24T01:24:43.401Z,73.3571
2022-11-24T01:25:43.443Z,73.3571
2022-11-24T01:26:43.485Z,73.5
2022-11-24T01:27:43.498Z,73.5
2022-11-24T01:28:47.022Z,73.5
2022-11-24T01:29:43.557Z,73.5
2022-11-24T01:30:43.641Z,73.5
2022-11-24T01:31:43.615Z,73.5
2022-11-24T01:32:43.640Z,73.4286
2022-11-24T01:33:43.663Z,73.3571
2022-11-24T01:34:43.698Z,73.3571
2022-11-24T01:35:43.738Z,73.3571
2022-11-24T01:36:43.774Z,73.2143
2022-11-24T01:37:43.805Z,73.1429
2022-11-24T01:38:43.835Z,73.0714
2022-11-24T01:39:43.873Z,73
2022-11-24T01:40:43.899Z,73
2022-11-24T01:41:43.930Z,72.9286
2022-11-24T01:42:43.957Z,72.8571
2022-11-24T01:43:43.994Z,72.9286
2022-11-24T01:44:44.026Z,72.9286
2022-11-24T01:45:44.092Z,72.9286
2022-11-24T01:46:44.087Z,72.8571
2022-11-24T01:47:44.121Z,72.8571
2022-11-24T01:48:44.156Z,72.9286
2022-11-24T01:49:44.183Z,72.9286
2022-11-24T01:50:44.220Z,72.9286
2022-11-24T01:51:44.243Z,72.9286
2022-11-24T01:52:44.272Z,72.9286
2022-11-24T01:53:44.304Z,72.9286
2022-11-24T01:54:44.335Z,73
2022-11-24T01:55:44.369Z,72.9286
2022-11-24T01:56:44.402Z,72.9286
2022-11-24T01:57:44.440Z,72.9286
2022-11-24T01:58:44.482Z,72.9286
2022-11-24T01:59:44.515Z,73
2022-11-24T02:00:44.542Z,72.9286
2022-11-24T02:01:44.693Z,72.9286
2022-11-24T02:02:44.668Z,73
2022-11-24T02:03:44.629Z,73
2022-11-24T02:04:44.674Z,73.0714
2022-11-24T02:05:44.701Z,73.0714
2022-11-24T02:06:44.731Z,73.0714
2022-11-24T02:07:44.874Z,73.1429
2022-11-24T02:08:44.790Z,73.1429
2022-11-24T02:09:44.819Z,73.1429
2022-11-24T02:10:44.852Z,73.1429
2022-11-24T02:11:44.885Z,73.0714
2022-11-24T02:12:44.911Z,73.0714
2022-11-24T02:13:44.938Z,73.1429
2022-11-24T02:14:44.971Z,73.2143
2022-11-24T02:15:45.055Z,73.1429
2022-11-24T02:16:45.050Z,73.2143
2022-11-24T02:17:45.082Z,73.2143
2022-11-24T02:18:45.105Z,73.2143
2022-11-24T02:19:45.140Z,73.2857
2022-11-24T02:20:45.180Z,73.2857
2022-11-24T02:21:45.215Z,73.3571
2022-11-24T02:22:45.245Z,73.3571
2022-11-24T02:23:45.277Z,73.3571
2022-11-24T02:24:45.303Z,73.3571
2022-11-24T02:25:45.335Z,73.3571
2022-11-24T02:26:45.376Z,73.3571
2022-11-24T02:27:50.706Z,73.4286
2022-11-24T02:28:45.423Z,73.5
2022-11-24T02:29:45.450Z,73.5
2022-11-24T02:30:45.517Z,73.5
2022-11-24T02:31:45.520Z,73.5714
2022-11-24T02:32:45.541Z,73.6429
2022-11-24T02:33:45.573Z,73.6429
2022-11-24T02:34:45.606Z,73.6429
2022-11-24T02:35:45.636Z,73.7143
2022-11-24T02:36:45.675Z,73.7143
2022-11-24T02:37:45.709Z,73.7143
2022-11-24T02:38:45.727Z,73.7857
2022-11-24T02:39:45.760Z,73.8571
2022-11-24T02:40:45.801Z,73.8571
2022-11-24T02:41:45.814Z,73.9286
2022-11-24T02:42:45.843Z,73.9286
2022-11-24T02:43:45.873Z,74
2022-11-24T02:44:45.914Z,74
2022-11-24T02:45:45.945Z,74
2022-11-24T02:46:45.980Z,73.9286
2022-11-24T02:47:46.023Z,73.9286
2022-11-24T02:48:46.047Z,73.9286
2022-11-24T02:49:46.088Z,73.8571
2022-11-24T02:50:46.124Z,73.7857
2022-11-24T02:51:46.137Z,73.8571
2022-11-24T02:52:46.168Z,73.9286
2022-11-24T02:53:46.195Z,73.9286
2022-11-24T02:54:46.224Z,73.9286
2022-11-24T02:55:46.254Z,73.8571
2022-11-24T02:56:46.287Z,73.9286
2022-11-24T02:57:46.318Z,73.9286
2022-11-24T02:58:46.356Z,73.9286
2022-11-24T02:59:46.387Z,73.9286
2022-11-24T03:00:46.423Z,73.8571
2022-11-24T03:01:46.506Z,73.8571
2022-11-24T03:02:46.531Z,73.8571
2022-11-24T03:03:46.510Z,74
2022-11-24T03:04:46.545Z,74
2022-11-24T03:05:46.579Z,74
2022-11-24T03:06:46.610Z,73.9286
2022-11-24T03:07:46.750Z,73.7857
2022-11-24T03:08:46.680Z,73.7143
2022-11-24T03:09:46.704Z,73.6429
2022-11-24T03:10:46.730Z,73.5714
2022-11-24T03:11:46.767Z,73.4286
2022-11-24T03:12:46.805Z,73.4286
2022-11-24T03:13:46.838Z,73.4286
2022-11-24T03:14:46.874Z,73.4286
2022-11-24T03:15:46.954Z,73.4286
2022-11-24T03:16:46.932Z,73.4286
2022-11-24T03:17:46.966Z,73.4286
2022-11-24T03:18:47.011Z,73.4286
2022-11-24T03:19:47.031Z,73.5
2022-11-24T03:20:47.050Z,73.5
2022-11-24T03:21:47.075Z,73.5
2022-11-24T03:22:47.118Z,73.5
2022-11-24T03:23:47.145Z,73.5714
2022-11-24T03:24:47.181Z,73.5714
2022-11-24T03:25:47.207Z,73.6429
2022-11-24T03:26:47.238Z,73.7143
2022-11-24T03:27:47.276Z,73.7857
2022-11-24T03:28:47.302Z,73.7857
2022-11-24T03:29:47.339Z,73.7143
2022-11-24T03:30:47.455Z,73.7143
2022-11-24T03:31:47.409Z,73.7143
2022-11-24T03:32:47.427Z,73.7143
2022-11-24T03:33:47.459Z,73.7143
2022-11-24T03:34:47.484Z,73.7143
2022-11-24T03:35:47.518Z,73.7143
2022-11-24T03:36:47.547Z,73.6429
2022-11-24T03:37:47.581Z,73.6429
2022-11-24T03:38:47.619Z,73.5714
2022-11-24T03:39:47.648Z,73.5
2022-11-24T03:40:47.671Z,73.5
2022-11-24T03:41:47.703Z,73.5
2022-11-24T03:42:47.729Z,73.4286
2022-11-24T03:43:47.759Z,73.2857
2022-11-24T03:44:47.788Z,73.2143
2022-11-24T03:45:47.840Z,73.2143
2022-11-24T03:46:47.874Z,73.2857
2022-11-24T03:47:47.883Z,73.2143
2022-11-24T03:48:47.911Z,73.1429
2022-11-24T03:49:47.945Z,73.1429
2022-11-24T03:50:47.978Z,73.0714
2022-11-24T03:51:48.009Z,73.1429
2022-11-24T03:52:48.050Z,73.1429
2022-11-24T03:53:48.080Z,73.1429
2022-11-24T03:54:48.112Z,73.1429
2022-11-24T03:55:48.146Z,73.2143
2022-11-24T03:56:48.175Z,73.1429
2022-11-24T03:57:48.206Z,73.1429
2022-11-24T03:58:48.230Z,73.1429
2022-11-24T03:59:48.261Z,73.1429
2022-11-24T04:00:48.291Z,73.1429
2022-11-24T04:01:48.384Z,73.0714
2022-11-24T04:02:48.458Z,73
2022-11-24T04:03:48.382Z,73
2022-11-24T04:04:49.847Z,73
2022-11-24T04:05:48.459Z,73
2022-11-24T04:06:48.486Z,73
2022-11-24T04:07:48.557Z,73
2022-11-24T04:08:48.556Z,73
2022-11-24T04:09:48.584Z,72.9286
2022-11-24T04:10:48.618Z,72.8571
2022-11-24T04:11:48.645Z,72.9286
2022-11-24T04:12:48.678Z,73.0714
2022-11-24T04:13:48.709Z,73.1429
2022-11-24T04:14:48.749Z,73.2143
2022-11-24T04:15:48.848Z,73.2143
2022-11-24T04:16:48.820Z,73.1429
2022-11-24T04:17:48.847Z,73
2022-11-24T04:18:48.889Z,72.9286
2022-11-24T04:19:48.927Z,73
2022-11-24T04:20:48.967Z,73
2022-11-24T04:21:49.001Z,73
2022-11-24T04:22:49.027Z,73
2022-11-24T04:23:49.061Z,73
2022-11-24T04:24:49.099Z,72.9286
2022-11-24T04:25:49.129Z,72.7857
2022-11-24T04:26:49.162Z,72.7143
2022-11-24T04:27:49.195Z,72.7143
2022-11-24T04:28:49.228Z,72.8571
2022-11-24T04:29:49.260Z,72.9286
2022-11-24T04:30:49.293Z,72.7857
2022-11-24T04:31:49.432Z,72.7143
2022-11-24T04:32:49.357Z,72.7143
2022-11-24T04:33:49.388Z,72.5
2022-11-24T04:34:49.426Z,72.5
2022-11-24T04:35:49.459Z,72.5714
2022-11-24T04:36:49.489Z,72.5714
2022-11-24T04:37:49.521Z,72.5
2022-11-24T04:39:23.290Z,72.4286
2022-11-24T04:39:49.585Z,72.4286
2022-11-24T04:40:49.614Z,72.3571
2022-11-24T04:41:49.651Z,72.3571
2022-11-24T04:42:49.684Z,72.3571
2022-11-24T04:43:49.718Z,72.4286
2022-11-24T04:44:49.751Z,72.5
2022-11-24T04:45:49.788Z,72.5
2022-11-24T04:46:49.876Z,72.5
2022-11-24T04:47:49.857Z,72.5
2022-11-24T04:48:49.896Z,72.5
2022-11-24T04:49:49.938Z,72.4286
2022-11-24T04:50:49.956Z,72.5
2022-11-24T04:51:49.989Z,72.5
2022-11-24T04:52:50.020Z,72.5
2022-11-24T04:53:50.057Z,72.5
2022-11-24T04:54:50.095Z,72.5714
2022-11-24T04:55:50.121Z,72.5714
2022-11-24T04:56:50.158Z,72.5
2022-11-24T04:57:50.185Z,72.5
2022-11-24T04:58:50.242Z,72.4286
2022-11-24T04:59:50.245Z,72.4286
2022-11-24T05:00:50.285Z,72.3571
2022-11-24T05:01:50.345Z,72.3571
2022-11-24T05:02:50.362Z,72.3571
2022-11-24T05:03:50.415Z,72.2857
2022-11-24T05:04:50.427Z,72.2143
2022-11-24T05:05:50.461Z,72.2143
2022-11-24T05:06:50.491Z,72.2143
2022-11-24T05:07:50.556Z,72.1429
2022-11-24T05:08:50.537Z,72.1429
2022-11-24T05:09:59.257Z,72.1429
2022-11-24T05:10:50.589Z,72.1429
2022-11-24T05:11:50.666Z,72.2143
2022-11-24T05:12:51.452Z,72.2143
2022-11-24T05:13:50.688Z,72.2143
2022-11-24T05:14:50.722Z,72.2143
2022-11-24T05:15:50.849Z,72.2857
2022-11-24T05:16:50.792Z,72.2857
2022-11-24T05:17:50.823Z,72.2857
2022-11-24T05:18:50.867Z,72.3571
2022-11-24T05:19:50.908Z,72.3571
2022-11-24T05:20:50.918Z,72.3571
2022-11-24T05:21:50.955Z,72.3571
2022-11-24T05:22:50.993Z,72.3571
2022-11-24T05:23:51.021Z,72.3571
2022-11-24T05:24:51.059Z,72.3571
2022-11-24T05:25:51.092Z,72.2143
2022-11-24T05:26:51.130Z,72.2143
2022-11-24T05:27:51.162Z,72.2143
2022-11-24T05:28:51.185Z,72.3571
2022-11-24T05:29:51.216Z,72.3571
2022-11-24T05:30:51.249Z,72.2857
2022-11-24T05:31:51.386Z,72.2857
2022-11-24T05:32:51.324Z,72.2857
2022-11-24T05:33:51.351Z,72.2857
2022-11-24T05:34:51.392Z,72.2857
2022-11-24T05:35:51.413Z,72.3571
2022-11-24T05:36:51.457Z,72.2857
2022-11-24T05:37:51.482Z,72.2857
2022-11-24T05:38:51.526Z,72.2857
2022-11-24T05:39:51.559Z,72.1429
2022-11-24T05:40:51.588Z,72.1429
2022-11-24T05:41:51.622Z,72.0714
2022-11-24T05:42:51.648Z,72.1429
2022-11-24T05:43:51.678Z,72.2143
2022-11-24T05:44:51.707Z,72.1429
2022-11-24T05:45:51.754Z,72.1429
2022-11-24T05:46:51.867Z,72.0714
2022-11-24T05:47:51.810Z,72
2022-11-24T05:48:51.842Z,71.9286
2022-11-24T05:49:51.889Z,72
2022-11-24T05:50:51.912Z,72
2022-11-24T05:51:51.946Z,72
2022-11-24T05:52:52.001Z,71.9286
2022-11-24T05:53:52.017Z,71.9286
2022-11-24T05:54:52.050Z,72
2022-11-24T05:55:52.079Z,72
2022-11-24T05:56:52.119Z,71.9286
2022-11-24T05:57:52.160Z,72
2022-11-24T05:58:52.173Z,72
2022-11-24T05:59:52.212Z,71.9286
2022-11-24T06:00:52.247Z,71.8571
2022-11-24T06:01:52.373Z,71.8571
2022-11-24T06:02:52.394Z,71.8571
2022-11-24T06:03:52.352Z,71.9286
2022-11-24T06:04:52.382Z,71.9286
2022-11-24T06:05:52.415Z,71.9286
2022-11-24T06:06:52.449Z,72.0714
2022-11-24T06:07:52.640Z,72.0714
2022-11-24T06:08:52.511Z,72.1429
2022-11-24T06:09:52.546Z,72.1429
2022-11-24T06:10:52.583Z,72.0714
2022-11-24T06:11:52.612Z,72
2022-11-24T06:12:52.642Z,71.8571
2022-11-24T06:13:52.793Z,71.7857
2022-11-24T06:14:52.706Z,71.7143
2022-11-24T06:15:52.738Z,71.7143
2022-11-24T06:16:52.844Z,71.7143
2022-11-24T06:17:52.809Z,71.5714
2022-11-24T06:18:52.836Z,71.4286
2022-11-24T06:19:52.866Z,71.3571
2022-11-24T06:21:09.501Z,71.3571
2022-11-24T06:21:52.919Z,71.3571
2022-11-24T06:22:52.959Z,71.3571
2022-11-24T06:23:52.997Z,71.4286
2022-11-24T06:24:53.012Z,71.4286
2022-11-24T06:25:53.054Z,71.4286
2022-11-24T06:26:53.078Z,71.5
2022-11-24T06:27:53.118Z,71.5
2022-11-24T06:28:53.146Z,71.5
2022-11-24T06:29:53.184Z,71.4286
2022-11-24T06:30:53.212Z,71.3571
2022-11-24T06:31:53.315Z,71.4286
2022-11-24T06:32:53.287Z,71.3571
2022-11-24T06:33:53.321Z,71.4286
2022-11-24T06:34:53.348Z,71.5
2022-11-24T06:35:53.385Z,71.4286
2022-11-24T06:36:53.417Z,71.4286
2022-11-24T06:37:53.448Z,71.4286
2022-11-24T06:38:53.484Z,71.4286
2022-11-24T06:39:53.526Z,71.4286
2022-11-24T06:40:53.547Z,71.5
2022-11-24T06:41:53.579Z,71.4286
2022-11-24T06:42:53.622Z,71.5
2022-11-24T06:43:53.657Z,71.5
2022-11-24T06:44:53.689Z,71.4286
2022-11-24T06:45:53.817Z,71.5714
2022-11-24T06:46:53.756Z,71.4286
2022-11-24T06:47:53.793Z,71.2857
2022-11-24T06:48:53.829Z,71.2857
2022-11-24T06:49:53.860Z,71.2857
2022-11-24T06:50:53.914Z,71.2143
2022-11-24T06:51:53.928Z,71.2143
2022-11-24T06:52:53.966Z,71.2143
2022-11-24T06:53:53.998Z,71.2143
2022-11-24T06:54:54.034Z,71.2857
2022-11-24T06:55:54.090Z,71.2857
2022-11-24T06:56:54.097Z,71.2143
2022-11-24T06:57:54.126Z,71.2143
2022-11-24T06:58:54.173Z,71.1429
2022-11-24T06:59:54.190Z,71.0714
2022-11-24T07:00:54.256Z,71.1429
2022-11-24T07:01:54.247Z,71.0714
2022-11-24T07:02:54.362Z,71.0714
2022-11-24T07:03:54.307Z,71
2022-11-24T07:04:54.340Z,70.9286
2022-11-24T07:05:54.383Z,70.7857
2022-11-24T07:06:54.411Z,70.7143
2022-11-24T07:07:54.449Z,70.6429
2022-11-24T07:08:54.452Z,70.7143
2022-11-24T07:09:54.475Z,70.7857
2022-11-24T07:10:54.522Z,70.7143
2022-11-24T07:11:54.552Z,70.5714
2022-11-24T07:12:54.572Z,70.5
2022-11-24T07:13:59.648Z,70.5
2022-11-24T07:14:54.640Z,70.4286
2022-11-24T07:15:54.660Z,70.4286
2022-11-24T07:16:54.761Z,70.4286
2022-11-24T07:17:54.723Z,70.4286
2022-11-24T07:18:54.753Z,70.4286
2022-11-24T07:19:54.808Z,70.3571
2022-11-24T07:20:54.830Z,70.2857
2022-11-24T07:21:54.862Z,70.2857
2022-11-24T07:22:54.890Z,70.3571
2022-11-24T07:23:54.918Z,70.4286
2022-11-24T07:24:54.954Z,70.2857
2022-11-24T07:25:54.979Z,70.2143
2022-11-24T07:26:55.008Z,70.2857
2022-11-24T07:27:55.045Z,70.3571
2022-11-24T07:28:55.076Z,70.4286
2022-11-24T07:29:55.113Z,70.3571
2022-11-24T07:30:55.141Z,70.4286
2022-11-24T07:31:55.219Z,70.2857
2022-11-24T07:32:55.211Z,70.3571
2022-11-24T07:33:55.262Z,70.3571
2022-11-24T07:34:55.264Z,70.3571
2022-11-24T07:35:55.299Z,70.3571
2022-11-24T07:36:55.348Z,70.3571
2022-11-24T07:37:55.371Z,70.3571
2022-11-24T07:38:55.411Z,70.3571
2022-11-24T07:39:55.445Z,70.3571
2022-11-24T07:40:55.470Z,70.4286
2022-11-24T07:41:55.512Z,70.5714
2022-11-24T07:42:55.541Z,70.5
2022-11-24T07:43:55.568Z,70.4286
2022-11-24T07:44:55.609Z,70.2857
2022-11-24T07:45:55.739Z,70.2857
2022-11-24T07:46:55.675Z,70.2857
2022-11-24T07:47:55.706Z,70.2857
2022-11-24T07:48:55.736Z,70.1429
2022-11-24T07:49:55.756Z,70.1429
2022-11-24T07:50:56.393Z,70.1429
2022-11-24T07:51:55.822Z,70.1429
2022-11-24T07:52:55.847Z,70.2143
2022-11-24T07:53:55.874Z,70.2143
2022-11-24T07:54:55.914Z,70.2143
2022-11-24T07:55:55.949Z,70.2143
2022-11-24T07:56:55.972Z,70.2143
2022-11-24T07:57:56.000Z,70.0714
2022-11-24T07:58:56.030Z,70.0714
2022-11-24T07:59:56.047Z,70.1429
2022-11-24T08:00:56.085Z,70.2857
2022-11-24T08:01:56.196Z,70.2857
2022-11-24T08:02:56.133Z,70.2857
2022-11-24T08:03:56.221Z,70.3571
2022-11-24T08:04:56.206Z,70.3571
2022-11-24T08:06:22.321Z,70.5
2022-11-24T08:06:56.269Z,70.4286
2022-11-24T08:07:56.361Z,70.3571
2022-11-24T08:08:56.326Z,70.3571
2022-11-24T08:09:56.369Z,70.2857
2022-11-24T08:10:56.404Z,70.1429
2022-11-24T08:11:56.432Z,70.0714
2022-11-24T08:12:56.511Z,70.0714
2022-11-24T08:13:56.508Z,70
2022-11-24T08:14:56.533Z,69.9286
2022-11-24T08:15:56.569Z,69.7857
2022-11-24T08:16:56.649Z,69.6429
2022-11-24T08:17:56.635Z,69.5714
2022-11-24T08:18:56.659Z,69.3571
2022-11-24T08:19:56.687Z,69.4286
2022-11-24T08:20:56.710Z,69.5
2022-11-24T08:21:56.752Z,69.5
2022-11-24T08:22:56.772Z,69.5
2022-11-24T08:23:56.823Z,69.5
2022-11-24T08:24:56.817Z,69.5
2022-11-24T08:25:57.131Z,69.5
2022-11-24T08:26:56.883Z,69.5714
2022-11-24T08:27:56.915Z,69.5
2022-11-24T08:28:56.952Z,69.3571
2022-11-24T08:29:56.977Z,69.4286
2022-11-24T08:30:57.008Z,69.5
2022-11-24T08:31:57.114Z,69.5714
2022-11-24T08:32:57.069Z,69.7143
2022-11-24T08:33:57.095Z,69.7143
2022-11-24T08:35:08.594Z,69.5
2022-11-24T08:35:57.168Z,69.5
2022-11-24T08:36:57.203Z,69.4286
2022-11-24T08:38:01.694Z,69.3571
2022-11-24T08:38:57.269Z,69.3571
2022-11-24T08:39:57.305Z,69.2857
2022-11-24T08:40:57.330Z,69.2143
2022-11-24T08:41:57.367Z,69.3571
2022-11-24T08:42:57.393Z,69.5714
2022-11-24T08:43:57.432Z,69.7857
2022-11-24T08:44:59.210Z,69.8571
2022-11-24T08:45:57.538Z,69.9286
2022-11-24T08:46:57.528Z,69.9286
2022-11-24T08:47:57.561Z,69.8571
2022-11-24T08:48:57.587Z,69.8571
2022-11-24T08:49:57.636Z,69.8571
2022-11-24T08:50:57.658Z,69.7143
2022-11-24T08:51:57.688Z,69.6429
2022-11-24T08:52:57.730Z,69.5714
2022-11-24T08:53:57.758Z,69.5
2022-11-24T08:54:57.785Z,69.2857
2022-11-24T08:55:57.824Z,69.0714
2022-11-24T08:56:57.853Z,68.8571
2022-11-24T08:57:57.889Z,68.8571
2022-11-24T08:58:58.102Z,68.7143
2022-11-24T08:59:57.945Z,68.6429
2022-11-24T09:00:58.010Z,68.5714
2022-11-24T09:01:58.107Z,68.6429
2022-11-24T09:02:58.046Z,68.7143
2022-11-24T09:03:58.163Z,68.7857
2022-11-24T09:04:58.113Z,68.9286
2022-11-24T09:05:58.141Z,68.7857
2022-11-24T09:06:58.168Z,68.6429
2022-11-24T09:07:58.267Z,68.7143
2022-11-24T09:08:58.223Z,68.6429
2022-11-24T09:09:58.276Z,68.6429
2022-11-24T09:10:58.289Z,68.7143
2022-11-24T09:11:58.328Z,68.7143
2022-11-24T09:12:58.367Z,68.7143
2022-11-24T09:13:58.392Z,68.5714
2022-11-24T09:14:58.411Z,68.5714
2022-11-24T09:15:58.442Z,68.8571
2022-11-24T09:16:58.590Z,68.9286
2022-11-24T09:17:58.498Z,68.8571
2022-11-24T09:18:58.534Z,68.9286
2022-11-24T09:19:58.563Z,68.9286
2022-11-24T09:20:58.597Z,68.8571
2022-11-24T09:21:58.623Z,68.7143
2022-11-24T09:22:58.647Z,68.7143
2022-11-24T09:23:58.678Z,68.7857
2022-11-24T09:24:58.700Z,68.7143
2022-11-24T09:25:58.729Z,68.6429
2022-11-24T09:26:58.771Z,68.6429
2022-11-24T09:27:58.802Z,68.6429
2022-11-24T09:28:58.824Z,68.5714
2022-11-24T09:29:58.854Z,68.4286
2022-11-24T09:30:58.924Z,68.1429
2022-11-24T09:32:03.604Z,68.0714
2022-11-24T09:32:58.957Z,68.2143
2022-11-24T09:33:58.980Z,68.0714
2022-11-24T09:34:59.006Z,68.0714
2022-11-24T09:35:59.038Z,68.0714
2022-11-24T09:36:59.066Z,68.1429
2022-11-24T09:37:59.090Z,68.2857
2022-11-24T09:38:59.141Z,68.3571
2022-11-24T09:39:59.160Z,68.3571
2022-11-24T09:40:59.193Z,68.5714
2022-11-24T09:41:59.229Z,68.7143
2022-11-24T09:42:59.264Z,68.6429
2022-11-24T09:43:59.284Z,68.5714
2022-11-24T09:44:59.325Z,68.7143
2022-11-24T09:46:06.208Z,68.7857
2022-11-24T09:46:59.470Z,68.7143
2022-11-24T09:47:59.415Z,68.7857
2022-11-24T09:48:59.460Z,69.0714
2022-11-24T09:49:59.504Z,69
2022-11-24T09:50:59.526Z,69.0714
2022-11-24T09:51:59.561Z,69
2022-11-24T09:52:59.587Z,68.9286
2022-11-24T09:53:59.615Z,68.9286
2022-11-24T09:54:59.664Z,69.1429
2022-11-24T09:55:59.698Z,69.1429
2022-11-24T09:56:59.718Z,69.0714
2022-11-24T09:57:59.745Z,69
2022-11-24T09:58:59.794Z,69
2022-11-24T09:59:59.821Z,68.7857
2022-11-24T10:00:59.953Z,68.7857
2022-11-24T10:01:59.990Z,68.6429
2022-11-24T10:02:59.900Z,68.5714
2022-11-24T10:04:05.913Z,68.7143
2022-11-24T10:04:59.968Z,68.7857
2022-11-24T10:05:59.977Z,68.8571
2022-11-24T10:07:00.012Z,68.9286
2022-11-24T10:08:00.120Z,68.7857
2022-11-24T10:09:00.079Z,68.6429
2022-11-24T10:10:00.190Z,68.4286
2022-11-24T10:11:00.140Z,68.3571
2022-11-24T10:12:00.161Z,68.4286
2022-11-24T10:13:00.203Z,68.4286
2022-11-24T10:14:00.241Z,68.5714
2022-11-24T10:15:00.264Z,68.5
2022-11-24T10:16:00.353Z,68.5
2022-11-24T10:17:00.326Z,68.5
2022-11-24T10:18:00.364Z,68.5714
2022-11-24T10:19:00.389Z,68.4286
2022-11-24T10:20:00.428Z,68.6429
2022-11-24T10:21:00.456Z,68.7857
2022-11-24T10:22:00.491Z,68.7857
2022-11-24T10:23:00.524Z,68.7857
2022-11-24T10:24:00.552Z,68.7857
2022-11-24T10:25:00.599Z,68.8571
2022-11-24T10:26:00.625Z,69
2022-11-24T10:27:00.670Z,68.7857
2022-11-24T10:28:00.702Z,68.8571
2022-11-24T10:29:00.735Z,69
2022-11-24T10:30:00.760Z,68.9286
2022-11-24T10:31:00.836Z,69
2022-11-24T10:32:00.819Z,69.0714
2022-11-24T10:33:00.850Z,69.0714
2022-11-24T10:34:00.890Z,68.9286
2022-11-24T10:35:00.907Z,69.0714
2022-11-24T10:36:00.937Z,69.0714
2022-11-24T10:37:00.976Z,69.0714
2022-11-24T10:38:00.998Z,69.1429
2022-11-24T10:39:01.014Z,69.3571
2022-11-24T10:40:01.072Z,69.2857
2022-11-24T10:41:01.086Z,69.2857
2022-11-24T10:42:01.114Z,69.4286
2022-11-24T10:43:01.138Z,69.6429
2022-11-24T10:44:01.170Z,69.7857
2022-11-24T10:45:01.202Z,69.9286
2022-11-24T10:46:01.322Z,69.7857
2022-11-24T10:47:01.277Z,69.7857
2022-11-24T10:48:01.303Z,69.7143
2022-11-24T10:49:01.342Z,69.5714
2022-11-24T10:50:01.384Z,69.5
2022-11-24T10:51:01.426Z,69.1429
2022-11-24T10:52:01.572Z,68.8571
2022-11-24T10:53:01.652Z,68.9286
2022-11-24T10:54:01.510Z,68.9286
2022-11-24T10:55:01.534Z,69.1429
2022-11-24T10:56:01.558Z,68.9286
2022-11-24T10:57:01.586Z,68.7857
2022-11-24T10:58:01.627Z,68.7857
2022-11-24T10:59:01.657Z,68.5714
2022-11-24T11:00:01.701Z,68.4286
2022-11-24T11:01:01.855Z,68.4286
2022-11-24T11:02:01.878Z,68.2857
2022-11-24T11:03:01.847Z,68.4286
2022-11-24T11:04:01.831Z,68.4286
2022-11-24T11:05:01.865Z,68.3571
2022-11-24T11:06:01.902Z,68.5714
2022-11-24T11:07:01.924Z,68.7143
2022-11-24T11:08:05.493Z,68.5
2022-11-24T11:09:01.992Z,68.3571
2022-11-24T11:10:02.019Z,68.4286
2022-11-24T11:11:02.056Z,68.4286
2022-11-24T11:12:27.788Z,68.2857
2022-11-24T11:13:02.120Z,68.0714
2022-11-24T11:14:04.512Z,68.0714
2022-11-24T11:15:02.185Z,68.0714
2022-11-24T11:16:02.258Z,68
2022-11-24T11:17:02.240Z,68.0714
2022-11-24T11:18:02.266Z,68.0714
2022-11-24T11:19:02.315Z,68.1429
2022-11-24T11:20:02.798Z,68.2143
2022-11-24T11:21:02.392Z,68.2857
2022-11-24T11:22:02.394Z,68.3571
2022-11-24T11:23:02.419Z,68.4286
2022-11-24T11:24:02.456Z,68.5
2022-11-24T11:25:02.491Z,68.5
2022-11-24T11:26:02.518Z,68.4286
2022-11-24T11:27:02.562Z,68.3571
2022-11-24T11:28:07.161Z,68.2143
2022-11-24T11:31:20.472Z,67.9286
2022-11-24T11:34:04.987Z,68.0714
2022-11-24T11:35:02.816Z,68.2143
2022-11-24T11:36:02.845Z,68
2022-11-24T11:37:02.868Z,67.9286
2022-11-24T11:38:02.900Z,68.0714
2022-11-24T11:39:02.937Z,68.1429
2022-11-24T11:40:02.974Z,68.2143
2022-11-24T11:41:02.994Z,68.2857
2022-11-24T11:42:03.027Z,68.3571
2022-11-24T11:43:03.514Z,68.2857
2022-11-24T11:44:03.084Z,68.4286
2022-11-24T11:45:03.112Z,68.3571
2022-11-24T11:46:03.319Z,68.4286
2022-11-24T11:47:03.308Z,68.2857
2022-11-24T11:48:03.212Z,68.3571
2022-11-24T11:49:03.236Z,68.4286
2022-11-24T11:50:03.263Z,68.5
2022-11-24T11:51:22.825Z,68.4286
2022-11-24T11:52:03.340Z,68.2857
2022-11-24T11:53:03.357Z,68.1429
2022-11-24T11:54:03.504Z,68.2143
2022-11-24T11:55:03.414Z,68.2857
2022-11-24T11:56:03.440Z,68.1429
2022-11-24T11:57:03.476Z,68.2143
2022-11-24T11:58:03.513Z,68.2143
2022-11-24T11:59:03.545Z,68.3571
2022-11-24T12:00:03.567Z,68.4286
2022-11-24T12:01:03.605Z,68.2143
2022-11-24T12:02:03.644Z,68.2143
2022-11-24T12:03:03.808Z,68.2143
2022-11-24T12:04:03.847Z,68.2857
2022-11-24T12:05:03.725Z,68.2857
2022-11-24T12:06:03.769Z,68.2857
2022-11-24T12:07:03.810Z,68.4286
2022-11-24T12:08:09.593Z,68.5
2022-11-24T12:09:19.747Z,68.4286
2022-11-24T12:10:03.902Z,68.5
2022-11-24T12:11:03.926Z,68.3571
2022-11-24T12:12:03.961Z,68.2857
2022-11-24T12:13:03.989Z,68.3571
2022-11-24T12:14:04.034Z,68.2857
2022-11-24T12:15:09.125Z,68.4286
2022-11-24T12:16:04.127Z,68.3571
2022-11-24T12:17:04.116Z,68.2857
2022-11-24T12:18:04.161Z,68.2857
2022-11-24T12:19:04.169Z,68.2857
2022-11-24T12:20:04.205Z,68.2857
2022-11-24T12:21:04.278Z,68.4286
2022-11-24T12:22:04.257Z,68.3571
2022-11-24T12:23:04.299Z,68.2857